Pagrindinis puslapis
METAR-TAF:

METAR-TAF

Oro uostai :

Frankfurto oro uostas

Frankfurtas, Vokietija

platuma: 50-03N, ilguma: 008-36E, Aukštis: 111 m

Dabartinis oras

Ataskaita buvo paskelbta 36 minutes, ne 10:20 UTC
Vėjas 9 kt iš Šiaurės Rytų, svyruoja nuo Šiaurės ir Rytų
Temperatūra 19°C
Drėgmė 37%
Slėgis 1021 hPa
Matomumas 10 km arba daugiau
nėra debesų žemiau 1500 m ir nėra kamuolinių lietaus debesų

METAR: EDDF 311020Z 04009KT 360V090 CAVOK 19/04 Q1021 NOSIG

Laikas: 12:56 (10:56 UTC)

Prognozė

Ataskaita buvo paskelbta 5 valandos ir 56 minutes, ne 05:00 UTC
Prognozė galioja nuo 31 metu 06 UTC su 01 metu 12 UTC
Vėjas 10 kt iš Šiaurės Rytų
Matomumas 10 km arba daugiau
nėra debesų žemiau 1500 m ir nėra kamuolinių lietaus debesų
Tapsmas
nuo 31 metu 18 UTC su 31 metu 21 UTC
Vėjas 5 kt iš Šiaurės Rytų
Tapsmas
nuo 01 metu 09 UTC su 01 metu 12 UTC
Vėjas 10 kt iš Šiaurės Rytų

TAF: EDDF 310500Z 3106/0112 04010KT CAVOK BECMG 3118/3121 05005KT BECMG 0109/0112 05010KT

Orai ataskaitas ir orų prognozės (METAR, TAF).

turimą stotys yra geltonos ir raudonos taškus žemėlapyje.

Perkelti pele per norėdami pamatyti stoties vardą.

Tada spustelėkite, norėdami matyti oro stebėjimo ir prognozės.

Norėdami pakeisti žemėlapį: spustelėkite ant žalios mygtukų su juodo kryžiaus žemyn,; žalią mygtuką su brūkšneliu, jei norite nutolinti; arba žalių rodyklių gretimoms žemėlapius.


METAR-TAF: